Time;durP1;ratioP1;P1;durP2;ratioP2;P2;SDS_P1;SDS_P2;PMS_P1;PMS_P2;Temp;Humidity;BMP_temperature;BMP_pressure;BME280_temperature;BME280_humidity;BME280_pressure;Samples;Min_cycle;Max_cycle;Signal;HPM_P1;HPM_P2
2022/04/28 00:00:19;;;;;;;3.28;2.85;;;;;;;23.08;50.64;100711.53;20441823;28;97470;-77
2022/04/28 00:10:20;;;;;;;4.20;3.00;;;;;;;23.06;50.70;100714.31;20437159;28;97481;-76
2022/04/28 00:20:21;;;;;;;3.25;2.70;;;;;;;23.02;50.82;100700.50;20443070;28;97248;-76
2022/04/28 00:30:22;;;;;;;3.42;2.60;;;;;;;23.03;50.82;100706.59;20424791;28;97314;-77
2022/04/28 00:40:22;;;;;;;5.45;2.78;;;;;;;23.05;50.38;100706.50;20427428;28;99333;-77
2022/04/28 00:50:38;;;;;;;3.65;2.58;;;;;;;23.01;50.53;100714.66;20440465;28;97876;-77
2022/04/28 01:00:40;;;;;;;3.13;2.70;;;;;;;23.01;50.43;100719.13;20354910;28;98277;-77
2022/04/28 01:10:40;;;;;;;4.33;2.67;;;;;;;22.99;50.52;100703.38;20350739;28;100274;-78
2022/04/28 01:20:42;;;;;;;3.00;2.30;;;;;;;23.00;50.54;100688.38;20360472;28;97512;-77
2022/04/28 01:30:43;;;;;;;3.60;2.40;;;;;;;22.98;50.49;100690.31;20352162;28;97132;-77
2022/04/28 01:40:44;;;;;;;3.10;2.25;;;;;;;22.94;50.37;100688.88;20341523;28;98920;-77
2022/04/28 01:54:57;;;;;;;3.03;2.20;;;;;;;22.94;50.86;100686.25;20351903;28;99011;-76
2022/04/28 02:01:07;;;;;;;3.03;2.40;;;;;;;22.94;50.28;100684.44;20356523;28;98906;-76
2022/04/28 02:11:07;;;;;;;2.97;2.57;;;;;;;22.93;50.42;100693.31;20350399;28;102068;-77
2022/04/28 02:21:08;;;;;;;3.20;2.30;;;;;;;22.91;50.23;100676.75;20415425;28;102898;-76
2022/04/28 02:31:08;;;;;;;2.47;2.28;;;;;;;22.89;50.50;100685.75;20433618;28;98040;-76
2022/04/28 02:41:09;;;;;;;2.60;2.10;;;;;;;22.90;50.45;100679.50;20414204;28;98518;-77
2022/04/28 02:51:09;;;;;;;2.47;2.25;;;;;;;22.89;50.20;100677.81;20350648;28;101286;-77
2022/04/28 03:01:10;;;;;;;2.20;2.00;;;;;;;22.89;50.18;100683.09;20357900;28;99526;-76
2022/04/28 03:11:11;;;;;;;2.55;2.35;;;;;;;22.86;49.99;100685.06;20365205;28;101488;-76
2022/04/28 03:21:13;;;;;;;2.83;2.30;;;;;;;22.85;50.29;100686.00;20374800;28;96981;-76
2022/04/28 03:31:13;;;;;;;3.67;2.00;;;;;;;22.83;50.21;100695.00;20370184;28;97128;-76
2022/04/28 03:41:14;;;;;;;2.10;1.90;;;;;;;22.80;50.30;100706.66;20355572;28;99058;-78
2022/04/28 03:51:14;;;;;;;2.90;2.47;;;;;;;22.79;50.27;100710.25;20363094;28;101083;-78
2022/04/28 04:01:14;;;;;;;2.40;2.20;;;;;;;22.77;50.30;100714.81;20418302;28;100445;-77
2022/04/28 04:11:15;;;;;;;2.22;1.85;;;;;;;22.75;50.38;100711.44;20418864;28;97109;-77
2022/04/28 04:21:19;;;;;;;2.75;2.00;;;;;;;22.82;51.08;100714.47;20347263;28;98064;-77
2022/04/28 04:41:38;;;;;;;4.60;2.30;;;;;;;22.92;52.08;100728.59;20352848;28;101214;-75
2022/04/28 04:51:38;;;;;;;4.30;2.13;;;;;;;22.94;51.32;100729.31;20354068;28;101449;-77
2022/04/28 05:01:39;;;;;;;13.47;3.97;;;;;;;22.91;51.24;100742.78;20355691;28;97112;-80
2022/04/28 05:11:39;;;;;;;15.98;5.00;;;;;;;22.86;49.71;100745.78;20333947;28;97803;-76
2022/04/28 05:21:40;;;;;;;17.23;6.85;;;;;;;22.68;48.73;100758.63;20358185;28;97722;-78
2022/04/28 05:31:41;;;;;;;34.85;8.20;;;;;;;22.86;49.50;100766.03;20353378;28;97378;-76
2022/04/28 05:41:42;;;;;;;39.67;9.52;;;;;;;22.87;50.63;100773.00;20353350;28;97627;-77
2022/04/28 05:51:43;;;;;;;31.67;8.63;;;;;;;22.85;49.13;100775.78;20367667;28;100105;-79
2022/04/28 06:01:44;;;;;;;32.35;8.13;;;;;;;22.84;49.92;100779.38;20366770;28;98409;-79
2022/04/28 06:11:44;;;;;;;33.55;8.85;;;;;;;22.84;50.70;100778.56;20399899;28;97493;-77
2022/04/28 06:21:45;;;;;;;28.98;8.07;;;;;;;22.86;50.68;100789.81;20450006;28;97717;-79
2022/04/28 06:31:45;;;;;;;24.15;7.10;;;;;;;22.86;50.46;100795.09;20432520;28;97957;-78
2022/04/28 06:41:46;;;;;;;24.98;7.68;;;;;;;22.91;50.62;100795.59;20461576;28;100373;-79
2022/04/28 06:51:46;;;;;;;23.38;7.70;;;;;;;22.90;50.57;100796.56;20460475;28;96932;-80
2022/04/28 07:01:48;;;;;;;31.00;7.55;;;;;;;22.92;50.78;100789.31;20461601;28;99985;-81
2022/04/28 07:11:48;;;;;;;20.38;6.95;;;;;;;22.95;50.78;100799.66;20451401;28;97203;-80
2022/04/28 07:21:49;;;;;;;20.67;6.40;;;;;;;22.98;50.63;100799.41;20490132;28;96953;-80
2022/04/28 07:31:49;;;;;;;17.52;5.75;;;;;;;23.00;50.51;100813.34;20467480;28;100155;-77
2022/04/28 07:42:08;;;;;;;14.25;5.90;;;;;;;22.98;50.52;100817.88;20446015;28;97170;-79
2022/04/28 07:52:09;;;;;;;16.73;6.32;;;;;;;22.98;50.57;100831.09;20461707;28;97520;-79
2022/04/28 08:02:14;;;;;;;18.98;6.30;;;;;;;23.02;50.64;100821.13;20464506;28;97711;-79
2022/04/28 08:12:14;;;;;;;16.98;6.47;;;;;;;22.95;50.52;100826.06;20451629;28;98782;-79
2022/04/28 08:22:15;;;;;;;16.77;5.78;;;;;;;23.02;50.50;100829.91;20449307;27;97023;-80
2022/04/28 08:32:16;;;;;;;13.30;6.27;;;;;;;23.03;50.82;100838.66;20451533;28;101550;-78
2022/04/28 08:42:19;;;;;;;15.98;6.30;;;;;;;23.08;51.05;100847.06;20452190;28;98010;-79
2022/04/28 08:52:19;;;;;;;15.82;7.32;;;;;;;23.08;50.66;100844.41;20435370;28;100376;-79
2022/04/28 09:02:29;;;;;;;13.80;7.10;;;;;;;23.12;50.43;100850.31;20462361;28;97166;-79
2022/04/28 09:12:30;;;;;;;13.23;6.78;;;;;;;23.14;50.37;100854.53;20460985;28;98369;-80
2022/04/28 09:22:30;;;;;;;11.47;6.70;;;;;;;23.15;50.37;100848.25;20471158;28;97763;-80
2022/04/28 09:32:31;;;;;;;12.82;6.95;;;;;;;23.20;50.31;100850.59;20473817;28;97044;-80
2022/04/28 09:42:39;;;;;;;12.63;6.65;;;;;;;23.24;50.00;100854.69;20461692;28;97035;-79
2022/04/28 09:52:42;;;;;;;12.52;6.80;;;;;;;23.29;49.58;100855.16;20464850;28;96966;-80
2022/04/28 10:02:44;;;;;;;11.55;6.55;;;;;;;23.32;50.08;100857.53;20463519;28;97196;-80
2022/04/28 10:12:47;;;;;;;10.70;6.27;;;;;;;23.34;49.74;100855.63;20472859;28;96986;-79
2022/04/28 10:22:50;;;;;;;11.55;6.45;;;;;;;23.34;49.69;100852.97;20482758;28;96833;-79
2022/04/28 10:32:55;;;;;;;11.00;6.43;;;;;;;23.41;49.69;100849.84;20477059;28;98112;-81
2022/04/28 10:42:57;;;;;;;9.15;6.45;;;;;;;23.41;49.43;100853.34;20410467;28;99259;-82
2022/04/28 10:53:03;;;;;;;12.93;6.57;;;;;;;23.41;49.69;100860.41;20400346;28;97545;-83
2022/04/28 11:03:04;;;;;;;10.82;6.88;;;;;;;23.42;49.53;100860.28;20402312;28;97403;-82
2022/04/28 11:13:09;;;;;;;9.20;6.75;;;;;;;23.40;49.31;100866.66;20357659;28;103660;-82
2022/04/28 11:23:09;;;;;;;10.63;6.57;;;;;;;23.40;49.23;100878.09;20366711;28;97162;-82
2022/04/28 11:33:13;;;;;;;11.50;6.60;;;;;;;23.42;48.89;100875.31;20371412;28;98220;-80
2022/04/28 11:43:14;;;;;;;11.50;6.50;;;;;;;23.41;48.96;100887.69;20363822;28;98279;-79
2022/04/28 11:53:16;;;;;;;13.77;6.93;;;;;;;23.45;48.59;100883.00;20360414;28;98653;-79
2022/04/28 12:03:24;;;;;;;8.37;4.80;;;;;;;23.41;45.22;100879.78;20387139;28;98343;-80
2022/04/28 12:23:58;;;;;;;7.88;5.07;;;;;;;23.52;42.65;100889.47;20358706;28;100142;-80
2022/04/28 12:34:07;;;;;;;7.22;4.25;;;;;;;23.53;43.01;100882.41;20361975;28;96967;-80
2022/04/28 12:44:08;;;;;;;11.13;5.13;;;;;;;23.70;44.63;100876.59;20387340;28;97653;-79
2022/04/28 12:54:37;;;;;;;11.82;4.70;;;;;;;23.93;44.42;100872.09;20381022;28;97301;-80
2022/04/28 13:04:38;;;;;;;12.07;4.30;;;;;;;23.97;44.23;100878.84;20381413;28;99863;-79
2022/04/28 13:14:39;;;;;;;5.90;3.03;;;;;;;23.80;37.81;100880.19;20374286;28;97425;-80
2022/04/28 13:24:40;;;;;;;3.15;2.42;;;;;;;23.44;33.11;100878.69;20355306;28;99228;-80
2022/04/28 13:34:41;;;;;;;4.90;3.10;;;;;;;23.24;32.37;100881.09;20360403;28;100902;-79
2022/04/28 13:44:42;;;;;;;3.83;2.57;;;;;;;23.16;32.62;100873.75;20364283;28;97679;-79
2022/04/28 13:54:42;;;;;;;2.72;2.30;;;;;;;22.99;32.34;100872.41;20357644;28;101221;-79
2022/04/28 14:04:43;;;;;;;2.63;2.20;;;;;;;23.25;33.01;100869.53;20333598;28;97460;-77
2022/04/28 14:14:44;;;;;;;3.45;2.33;;;;;;;23.43;33.61;100871.72;20365591;28;97901;-80
2022/04/28 14:24:45;;;;;;;5.70;2.13;;;;;;;23.48;33.26;100865.06;20424847;28;98219;-78
2022/04/28 14:34:46;;;;;;;4.67;2.70;;;;;;;23.63;32.50;100864.81;20392095;28;97595;-77
2022/04/28 14:44:47;;;;;;;13.15;1.90;;;;;;;23.69;31.09;100863.50;20386303;28;100535;-77
2022/04/28 14:54:53;;;;;;;5.10;2.17;;;;;;;23.76;34.00;100854.94;20422234;28;97384;-76
2022/04/28 15:04:54;;;;;;;2.67;2.00;;;;;;;23.76;34.10;100864.69;20460393;28;97557;-76
2022/04/28 15:14:57;;;;;;;3.80;2.38;;;;;;;23.68;33.84;100870.59;20428473;28;99053;-74
2022/04/28 15:24:58;;;;;;;3.88;2.67;;;;;;;23.64;33.45;100883.22;20444324;28;102030;-77
2022/04/28 15:34:59;;;;;;;4.43;2.15;;;;;;;23.69;33.29;100877.53;20431546;28;97140;-77
2022/04/28 15:45:00;;;;;;;8.20;2.60;;;;;;;23.64;33.43;100896.44;20425242;28;99780;-79
2022/04/28 15:55:00;;;;;;;5.03;2.20;;;;;;;23.60;33.97;100905.56;20405691;28;98666;-76
2022/04/28 16:05:01;;;;;;;5.50;2.17;;;;;;;23.58;34.13;100915.44;20428267;28;97671;-78
2022/04/28 16:15:02;;;;;;;4.50;2.13;;;;;;;23.49;33.86;100906.41;20449136;28;98551;-78
2022/04/28 16:25:03;;;;;;;11.30;2.40;;;;;;;23.42;33.81;100909.66;20433665;28;98711;-80
2022/04/28 16:35:06;;;;;;;5.97;1.95;;;;;;;23.44;33.61;100910.41;20461101;28;97445;-81
2022/04/28 16:45:08;;;;;;;2.60;2.05;;;;;;;23.36;33.55;100916.25;20442985;28;100792;-80
2022/04/28 16:55:10;;;;;;;5.40;2.08;;;;;;;23.45;34.07;100920.84;20414807;28;98171;-76
2022/04/28 17:05:10;;;;;;;5.63;2.50;;;;;;;23.42;34.43;100929.00;20434574;28;102339;-75
2022/04/28 17:15:12;;;;;;;4.65;2.65;;;;;;;23.44;34.65;100940.31;20444960;28;99359;-79
2022/04/28 17:25:13;;;;;;;5.17;2.70;;;;;;;23.42;35.10;100955.44;20406541;28;98298;-80
2022/04/28 17:35:15;;;;;;;7.93;4.03;;;;;;;23.27;34.81;100970.69;20404269;28;101643;-82
2022/04/28 17:45:16;;;;;;;10.25;3.70;;;;;;;23.31;37.42;100987.13;20429864;28;97794;-84
2022/04/28 18:05:36;;;;;;;8.65;3.58;;;;;;;23.54;39.40;101021.53;20425670;28;97046;-81
2022/04/28 18:15:37;;;;;;;10.48;3.35;;;;;;;23.57;40.20;101034.50;20437793;28;100813;-82
2022/04/28 18:25:38;;;;;;;18.63;3.23;;;;;;;23.64;40.63;101051.56;20444939;28;100691;-84
2022/04/28 18:45:58;;;;;;;10.85;3.42;;;;;;;23.56;40.29;101075.97;20443833;28;97856;-85
2022/04/28 18:55:59;;;;;;;6.50;3.10;;;;;;;23.50;40.71;101090.47;20438676;28;98022;-82
2022/04/28 19:06:00;;;;;;;9.25;3.17;;;;;;;23.51;40.74;101101.91;20450648;28;98754;-83
2022/04/28 19:16:00;;;;;;;9.60;3.67;;;;;;;23.36;41.84;101122.41;20441644;28;98240;-82
2022/04/28 19:26:01;;;;;;;6.07;3.30;;;;;;;23.30;41.83;101126.38;20437093;28;97159;-81
2022/04/28 19:36:02;;;;;;;23.48;4.00;;;;;;;23.30;42.30;101130.78;20448569;28;98401;-81
2022/04/28 19:46:04;;;;;;;8.38;3.35;;;;;;;23.29;42.29;101139.66;20428936;28;97808;-81
2022/04/28 19:56:06;;;;;;;4.47;2.97;;;;;;;23.27;42.75;101149.53;20449233;28;97620;-81
2022/04/28 20:06:07;;;;;;;;;;;;;;;23.25;42.89;101159.34;20435711;28;96999;-77
2022/04/28 20:16:08;;;;;;;5.82;2.80;;;;;;;23.21;43.06;101169.31;20447911;28;103353;-78
2022/04/28 20:26:10;;;;;;;6.17;2.90;;;;;;;23.20;42.96;101172.91;20447308;28;98069;-77
2022/04/28 20:36:13;;;;;;;6.30;3.07;;;;;;;23.18;43.25;101183.59;20446905;28;98177;-78
2022/04/28 20:46:14;;;;;;;6.63;3.42;;;;;;;23.15;43.24;101196.97;20441962;28;97633;-78
2022/04/28 20:56:15;;;;;;;13.02;3.00;;;;;;;23.12;43.40;101204.28;20440443;28;101132;-77
2022/04/28 21:06:16;;;;;;;4.95;3.17;;;;;;;23.10;43.39;101207.03;20430692;28;97963;-78
2022/04/28 21:16:17;;;;;;;4.83;3.03;;;;;;;23.09;43.58;101212.44;20443315;28;97006;-78
2022/04/28 21:26:18;;;;;;;4.90;2.70;;;;;;;23.06;43.82;101226.72;20442024;28;97059;-79
2022/04/28 21:36:22;;;;;;;3.60;2.90;;;;;;;23.13;44.21;101229.75;20432956;28;99252;-79
2022/04/28 21:46:23;;;;;;;5.57;3.17;;;;;;;23.18;43.84;101240.88;20441278;28;96934;-77
2022/04/28 21:56:24;;;;;;;3.92;3.05;;;;;;;23.14;44.16;101245.50;20441811;28;101437;-79
2022/04/28 22:16:45;;;;;;;3.38;2.75;;;;;;;23.16;43.98;101234.81;20462055;28;97525;-78
2022/04/28 22:26:46;;;;;;;4.03;2.60;;;;;;;23.12;44.19;101244.78;20464185;28;97593;-78
2022/04/28 22:36:46;;;;;;;3.10;2.42;;;;;;;23.09;44.27;101242.34;20450617;28;97047;-77
2022/04/28 22:46:47;;;;;;;3.47;2.40;;;;;;;23.08;44.00;101245.94;20455088;28;97270;-78
2022/04/28 22:56:47;;;;;;;5.05;2.80;;;;;;;23.05;43.83;101240.06;20456776;28;97062;-78
2022/04/28 23:06:48;;;;;;;4.30;2.60;;;;;;;23.05;44.38;101240.88;20454072;28;98193;-79
2022/04/28 23:16:49;;;;;;;3.67;2.70;;;;;;;23.07;44.14;101235.47;20464098;28;97845;-79
2022/04/28 23:26:50;;;;;;;3.17;2.50;;;;;;;23.06;44.21;101234.66;20460371;28;101341;-78
2022/04/28 23:47:10;;;;;;;4.57;2.42;;;;;;;22.99;44.30;101244.81;20455247;28;100068;-79
2022/04/28 23:57:11;;;;;;;3.47;2.60;;;;;;;23.01;44.14;101244.72;20446687;28;97716;-78
